Time;durP1;ratioP1;P1;durP2;ratioP2;P2;SDS_P1;SDS_P2;PMS_P1;PMS_P2;Temp;Humidity;BMP_temperature;BMP_pressure;BME280_temperature;BME280_humidity;BME280_pressure;Samples;Min_cycle;Max_cycle;Signal;HPM_P1;HPM_P2
2024/02/04 00:00:25;;;;;;;0.22;0.22;;;;;;;8.96;100.00;100210.09;5022195;28;20045;-59
2024/02/04 00:02:52;;;;;;;0.30;0.30;;;;;;;9.01;100.00;100210.31;5038058;28;20064;-59
2024/02/04 00:05:19;;;;;;;0.20;0.20;;;;;;;9.03;100.00;100197.56;5020518;28;20041;-59
2024/02/04 00:07:46;;;;;;;0.28;0.28;;;;;;;9.04;100.00;100205.38;5040923;28;20075;-59
2024/02/04 00:10:17;;;;;;;0.20;0.20;;;;;;;9.03;100.00;100184.19;5023125;28;20041;-58
2024/02/04 00:12:44;;;;;;;0.20;0.20;;;;;;;9.12;100.00;100182.94;5034850;28;20450;-59
2024/02/04 00:15:11;;;;;;;0.30;0.30;;;;;;;9.09;100.00;100183.38;5042270;28;20541;-59
2024/02/04 00:17:38;;;;;;;0.20;0.20;;;;;;;9.12;100.00;100184.81;5043825;28;20471;-59
2024/02/04 00:20:07;;;;;;;0.20;0.20;;;;;;;9.04;100.00;100175.16;5042698;28;20041;-59
2024/02/04 00:22:34;;;;;;;0.30;0.30;;;;;;;9.10;100.00;100165.47;5039380;28;20049;-58
2024/02/04 00:25:04;;;;;;;0.20;0.20;;;;;;;9.13;100.00;100157.00;5042371;28;20084;-59
2024/02/04 00:27:33;;;;;;;0.30;0.30;;;;;;;9.10;100.00;100160.94;5038651;28;20057;-59
2024/02/04 00:30:00;;;;;;;0.28;0.28;;;;;;;9.01;100.00;100162.19;5025016;28;20042;-59
2024/02/04 00:32:27;;;;;;;0.30;0.30;;;;;;;8.91;100.00;100159.97;5045127;28;20048;-58
2024/02/04 00:34:54;;;;;;;0.30;0.30;;;;;;;8.77;100.00;100169.84;5043690;28;20075;-59
2024/02/04 00:37:21;;;;;;;0.20;0.20;;;;;;;8.72;100.00;100177.66;5044463;28;20485;-59
2024/02/04 00:39:48;;;;;;;0.25;0.25;;;;;;;8.69;100.00;100185.28;5043553;28;20045;-59
2024/02/04 00:42:15;;;;;;;0.20;0.20;;;;;;;8.69;100.00;100191.44;5043417;28;20049;-59
2024/02/04 00:44:44;;;;;;;0.30;0.30;;;;;;;8.64;100.00;100193.91;5026966;28;20044;-59
2024/02/04 00:47:11;;;;;;;0.30;0.30;;;;;;;8.54;100.00;100196.19;5022381;28;20052;-59
2024/02/04 00:49:38;;;;;;;0.20;0.20;;;;;;;8.48;100.00;100191.63;5027234;28;20131;-58
2024/02/04 00:52:06;;;;;;;0.20;0.20;;;;;;;8.48;100.00;100192.44;5024726;28;20538;-58
2024/02/04 00:54:33;;;;;;;0.30;0.30;;;;;;;8.42;100.00;100196.78;5040905;28;20065;-59
2024/02/04 00:57:01;;;;;;;0.20;0.20;;;;;;;8.42;100.00;100199.44;5042214;28;20055;-59
2024/02/04 00:59:29;;;;;;;0.30;0.30;;;;;;;8.48;100.00;100205.00;5041281;28;20041;-59
2024/02/04 01:01:58;;;;;;;0.30;0.30;;;;;;;8.46;100.00;100204.38;5023153;28;20049;-58
2024/02/04 01:04:25;;;;;;;0.20;0.20;;;;;;;8.47;100.00;100206.03;5042469;28;20055;-58
2024/02/04 01:06:52;;;;;;;0.20;0.20;;;;;;;8.42;100.00;100209.31;5041014;28;20122;-59
2024/02/04 01:09:19;;;;;;;0.20;0.20;;;;;;;8.39;100.00;100209.69;5026224;28;20198;-58
2024/02/04 01:11:47;;;;;;;0.20;0.20;;;;;;;8.47;100.00;100203.38;5042678;28;20052;-59
2024/02/04 01:14:14;;;;;;;0.30;0.30;;;;;;;8.32;100.00;100190.97;5025609;28;20135;-59
2024/02/04 01:16:40;;;;;;;0.22;0.22;;;;;;;8.22;100.00;100185.22;5024490;28;20157;-59
2024/02/04 01:19:09;;;;;;;0.20;0.20;;;;;;;8.34;100.00;100199.63;5043254;28;20041;-59
2024/02/04 01:21:36;;;;;;;0.30;0.30;;;;;;;8.29;100.00;100191.41;5024756;28;20045;-59
2024/02/04 01:24:04;;;;;;;0.30;0.30;;;;;;;8.32;100.00;100182.97;5042619;28;20041;-59
2024/02/04 01:26:31;;;;;;;0.38;0.38;;;;;;;8.29;100.00;100188.72;5020953;28;20060;-59
2024/02/04 01:28:58;;;;;;;0.30;0.30;;;;;;;8.31;100.00;100191.19;5024459;28;20222;-59
2024/02/04 01:31:25;;;;;;;0.30;0.30;;;;;;;8.26;100.00;100185.63;5024246;28;20310;-59
2024/02/04 01:33:52;;;;;;;0.28;0.28;;;;;;;8.18;100.00;100194.66;5041118;28;20052;-59
2024/02/04 01:36:21;;;;;;;0.20;0.20;;;;;;;8.26;100.00;100197.13;5024453;28;20048;-59
2024/02/04 01:38:48;;;;;;;0.20;0.20;;;;;;;8.23;100.00;100208.22;5023599;28;20139;-59
2024/02/04 01:41:15;;;;;;;0.30;0.30;;;;;;;8.23;100.00;100207.41;5025880;28;20033;-59
2024/02/04 01:43:42;;;;;;;0.30;0.30;;;;;;;8.27;100.00;100211.31;5036401;28;20045;-59
2024/02/04 01:46:09;;;;;;;0.30;0.30;;;;;;;8.29;100.00;100204.75;5019957;28;20391;-59
2024/02/04 01:48:36;;;;;;;0.30;0.30;;;;;;;8.24;100.00;100201.88;5003283;28;20409;-59
2024/02/04 01:51:04;;;;;;;0.25;0.25;;;;;;;8.26;100.00;100198.97;5021493;28;20045;-59
2024/02/04 01:53:32;;;;;;;0.30;0.30;;;;;;;8.21;100.00;100196.91;5020154;28;20038;-59
2024/02/04 01:55:59;;;;;;;0.20;0.20;;;;;;;8.16;100.00;100194.03;5023224;28;20053;-59
2024/02/04 01:58:26;;;;;;;0.30;0.30;;;;;;;8.09;100.00;100178.00;5028860;28;20554;-58
2024/02/04 02:00:53;;;;;;;0.30;0.30;;;;;;;8.00;100.00;100182.72;5013569;28;20771;-59
2024/02/04 02:03:21;;;;;;;0.20;0.20;;;;;;;8.00;100.00;100184.56;5019009;28;20104;-59
2024/02/04 02:05:48;;;;;;;0.30;0.30;;;;;;;7.95;100.00;100176.34;5020125;28;20496;-59
2024/02/04 02:08:15;;;;;;;0.30;0.30;;;;;;;7.92;100.00;100177.56;5023283;28;20041;-59
2024/02/04 02:10:46;;;;;;;0.30;0.30;;;;;;;7.89;100.00;100177.97;5019986;28;20050;-59
2024/02/04 02:13:16;;;;;;;0.28;0.28;;;;;;;7.99;100.00;100172.25;5022590;28;20234;-59
2024/02/04 02:15:46;;;;;;;0.20;0.20;;;;;;;8.02;100.00;100161.16;4999578;28;20052;-59
2024/02/04 02:18:16;;;;;;;0.40;0.40;;;;;;;8.10;100.00;100162.81;5023090;28;20037;-59
2024/02/04 02:21:08;;;;;;;0.35;0.35;;;;;;;8.11;100.00;100154.63;5015893;28;20045;-59
2024/02/04 02:23:36;;;;;;;0.30;0.30;;;;;;;8.17;100.00;100161.78;5022194;28;20045;-59
2024/02/04 02:26:04;;;;;;;0.30;0.30;;;;;;;8.18;100.00;100163.44;5021786;28;20061;-59
2024/02/04 02:28:32;;;;;;;0.20;0.20;;;;;;;8.31;100.00;100154.63;5019067;28;20112;-59
2024/02/04 02:30:59;;;;;;;0.20;0.20;;;;;;;8.10;100.00;100152.13;5025164;28;20046;-59
2024/02/04 02:33:26;;;;;;;0.30;0.30;;;;;;;8.12;100.00;100139.41;5023420;28;20061;-59
2024/02/04 02:35:56;;;;;;;0.30;0.30;;;;;;;8.25;100.00;100143.94;5021104;28;20060;-59
2024/02/04 02:38:25;;;;;;;0.20;0.20;;;;;;;8.25;100.00;100134.06;5022101;28;20038;-59
2024/02/04 02:40:55;;;;;;;0.30;0.30;;;;;;;8.09;100.00;100134.47;5021699;28;20049;-59
2024/02/04 02:43:23;;;;;;;0.20;0.20;;;;;;;8.15;100.00;100137.13;5025690;28;20044;-59
2024/02/04 02:45:50;;;;;;;0.30;0.30;;;;;;;8.22;100.00;100134.47;5021095;28;20309;-59
2024/02/04 02:48:18;;;;;;;0.30;0.30;;;;;;;8.22;100.00;100139.81;5037809;28;20059;-59
2024/02/04 02:50:45;;;;;;;0.30;0.30;;;;;;;8.19;100.00;100134.91;5023744;28;20044;-59
2024/02/04 02:53:12;;;;;;;0.30;0.30;;;;;;;8.29;100.00;100140.66;5023072;28;20049;-59
2024/02/04 02:55:41;;;;;;;0.30;0.30;;;;;;;8.31;100.00;100135.09;5038454;28;20045;-59
2024/02/04 02:58:08;;;;;;;0.30;0.30;;;;;;;8.29;100.00;100145.19;5037718;28;20132;-59
2024/02/04 03:00:37;;;;;;;0.30;0.30;;;;;;;8.29;100.00;100139.84;5036758;28;20040;-59
2024/02/04 03:03:04;;;;;;;0.30;0.30;;;;;;;8.32;100.00;100148.25;5039622;28;20353;-59
2024/02/04 03:05:31;;;;;;;0.30;0.30;;;;;;;8.32;100.00;100155.44;5021795;28;20333;-60
2024/02/04 03:07:59;;;;;;;0.30;0.30;;;;;;;8.43;100.00;100141.50;5023402;28;20108;-59
2024/02/04 03:10:26;;;;;;;0.30;0.30;;;;;;;8.41;100.00;100143.53;5022988;28;20053;-59
2024/02/04 03:12:53;;;;;;;0.30;0.30;;;;;;;8.39;100.00;100141.09;5040149;28;20487;-59
2024/02/04 03:15:20;;;;;;;0.30;0.30;;;;;;;8.44;100.00;100135.13;5041263;28;20037;-59
2024/02/04 03:17:49;;;;;;;0.30;0.30;;;;;;;8.38;100.00;100126.03;5023868;28;20047;-59
2024/02/04 03:20:16;;;;;;;0.22;0.22;;;;;;;8.42;100.00;100124.66;5021933;28;20849;-59
2024/02/04 03:22:44;;;;;;;0.30;0.30;;;;;;;8.36;100.00;100135.28;5040592;28;20045;-58
2024/02/04 03:25:11;;;;;;;0.20;0.20;;;;;;;8.37;100.00;100143.09;5041780;28;20041;-59
2024/02/04 03:27:40;;;;;;;0.20;0.20;;;;;;;8.47;100.00;100136.56;5041514;28;20060;-59
2024/02/04 03:30:08;;;;;;;0.30;0.30;;;;;;;8.52;100.00;100148.28;5036056;28;20048;-59
2024/02/04 03:32:35;;;;;;;0.30;0.30;;;;;;;8.63;100.00;100141.47;5041985;28;20049;-59
2024/02/04 03:35:05;;;;;;;0.30;0.30;;;;;;;8.63;100.00;100138.81;5018378;28;20053;-59
2024/02/04 03:37:33;;;;;;;0.20;0.20;;;;;;;8.61;100.00;100132.84;5010245;28;20640;-59
2024/02/04 03:40:00;;;;;;;0.20;0.20;;;;;;;8.62;100.00;100134.50;5036934;28;20076;-59
2024/02/04 03:42:27;;;;;;;0.28;0.28;;;;;;;8.68;100.00;100133.66;5017018;28;20052;-59
2024/02/04 03:44:54;;;;;;;0.20;0.20;;;;;;;8.69;100.00;100140.66;5038211;28;20512;-59
2024/02/04 03:47:22;;;;;;;0.20;0.20;;;;;;;8.69;100.00;100135.31;5038990;28;20264;-59
2024/02/04 03:49:49;;;;;;;0.30;0.30;;;;;;;8.74;100.00;100132.03;5039783;28;20080;-59
2024/02/04 03:52:17;;;;;;;0.40;0.40;;;;;;;8.81;100.00;100130.97;5026499;28;20049;-59
2024/02/04 03:54:44;;;;;;;0.20;0.20;;;;;;;8.65;100.00;100134.06;5026020;28;20064;-60
2024/02/04 03:57:11;;;;;;;0.30;0.30;;;;;;;8.71;100.00;100133.25;5025693;28;20407;-59
2024/02/04 03:59:38;;;;;;;0.20;0.20;;;;;;;8.74;100.00;100126.69;5027669;28;20040;-59
2024/02/04 04:02:05;;;;;;;0.20;0.20;;;;;;;8.74;100.00;100122.16;5040893;28;20068;-59
2024/02/04 04:04:33;;;;;;;0.30;0.30;;;;;;;8.76;100.00;100135.28;5044950;28;20068;-58
2024/02/04 04:07:00;;;;;;;0.20;0.20;;;;;;;8.78;100.00;100133.22;5041512;28;20499;-59
2024/02/04 04:09:28;;;;;;;0.20;0.20;;;;;;;8.82;100.00;100121.91;5042619;28;20211;-59
2024/02/04 04:11:55;;;;;;;0.30;0.30;;;;;;;8.78;100.00;100112.66;5033402;28;20785;-59
2024/02/04 04:14:22;;;;;;;0.20;0.20;;;;;;;8.73;100.00;100125.03;5043604;28;20044;-59
2024/02/04 04:16:50;;;;;;;0.15;0.15;;;;;;;8.77;100.00;100119.06;5043798;28;20033;-59
2024/02/04 04:19:17;;;;;;;0.20;0.20;;;;;;;8.80;100.00;100131.19;5037915;28;20657;-58
2024/02/04 04:21:44;;;;;;;0.30;0.30;;;;;;;8.76;100.00;100132.63;5014907;28;20044;-59
2024/02/04 04:24:11;;;;;;;0.30;0.30;;;;;;;8.72;100.00;100134.91;5044084;28;20048;-59
2024/02/04 04:26:39;;;;;;;0.28;0.28;;;;;;;8.74;100.00;100148.06;5044059;28;20073;-59
2024/02/04 04:29:06;;;;;;;0.20;0.20;;;;;;;8.76;100.00;100141.47;5029321;28;20045;-59
2024/02/04 04:31:34;;;;;;;0.20;0.20;;;;;;;8.68;100.00;100132.84;5043205;28;20074;-59
2024/02/04 04:34:01;;;;;;;0.20;0.20;;;;;;;8.65;100.00;100118.03;5040643;28;20041;-59
2024/02/04 04:36:28;;;;;;;0.30;0.30;;;;;;;8.54;100.00;100118.69;5043886;28;20064;-59
2024/02/04 04:38:55;;;;;;;0.20;0.20;;;;;;;8.32;100.00;100131.41;5044223;28;20140;-59
2024/02/04 04:41:22;;;;;;;0.30;0.30;;;;;;;8.40;100.00;100148.06;5044559;28;20044;-59
2024/02/04 04:43:50;;;;;;;0.20;0.20;;;;;;;8.31;100.00;100143.94;5043263;28;20052;-59
2024/02/04 04:46:17;;;;;;;0.28;0.28;;;;;;;8.23;100.00;100146.78;5025527;28;20124;-59
2024/02/04 04:48:45;;;;;;;0.30;0.30;;;;;;;8.22;100.00;100137.16;5002215;28;20132;-59
2024/02/04 04:51:14;;;;;;;0.20;0.20;;;;;;;8.23;100.00;100124.63;4989807;28;20050;-59
2024/02/04 04:53:41;;;;;;;0.30;0.30;;;;;;;8.24;100.00;100143.13;5004677;28;20038;-58
2024/02/04 04:56:09;;;;;;;0.30;0.30;;;;;;;8.11;100.00;100135.06;5002580;28;20456;-59
2024/02/04 04:58:36;;;;;;;0.30;0.30;;;;;;;8.08;100.00;100143.50;5004407;28;20052;-59
2024/02/04 05:01:05;;;;;;;0.20;0.20;;;;;;;7.99;100.00;100135.69;4998465;28;20741;-59
2024/02/04 05:03:32;;;;;;;0.30;0.30;;;;;;;7.99;100.00;100141.03;5004234;28;20476;-59
2024/02/04 05:06:00;;;;;;;0.30;0.30;;;;;;;8.03;100.00;100140.63;4995226;28;20046;-59
2024/02/04 05:08:28;;;;;;;0.30;0.30;;;;;;;8.07;100.00;100149.88;5014557;28;20137;-59
2024/02/04 05:10:55;;;;;;;0.25;0.25;;;;;;;8.03;100.00;100153.97;5001970;28;20137;-59
2024/02/04 05:13:22;;;;;;;0.28;0.28;;;;;;;8.03;100.00;100156.63;4999850;28;20516;-59
2024/02/04 05:15:49;;;;;;;0.35;0.35;;;;;;;8.10;100.00;100162.81;5011723;28;20730;-59
2024/02/04 05:18:18;;;;;;;0.30;0.30;;;;;;;8.03;100.00;100167.31;5003148;28;20045;-59
2024/02/04 05:20:45;;;;;;;0.30;0.30;;;;;;;8.05;100.00;100173.28;5002363;28;20378;-59
2024/02/04 05:23:12;;;;;;;0.30;0.30;;;;;;;8.12;100.00;100163.44;5002663;28;20101;-59
2024/02/04 05:25:39;;;;;;;0.25;0.25;;;;;;;7.99;100.00;100156.22;5002176;28;20045;-59
2024/02/04 05:28:07;;;;;;;0.20;0.20;;;;;;;8.12;100.00;100150.09;5004314;28;20534;-59
2024/02/04 05:30:34;;;;;;;0.20;0.20;;;;;;;8.04;100.00;100166.28;5003082;28;20484;-59
2024/02/04 05:33:01;;;;;;;0.30;0.30;;;;;;;8.05;100.00;100157.25;4998107;28;20046;-59
2024/02/04 05:35:29;;;;;;;0.20;0.20;;;;;;;8.02;100.00;100155.00;5002876;28;20301;-59
2024/02/04 05:37:57;;;;;;;0.30;0.30;;;;;;;7.95;100.00;100146.97;5002774;28;20314;-58
2024/02/04 05:40:24;;;;;;;0.30;0.30;;;;;;;7.96;100.00;100137.94;4996865;28;20060;-59
2024/02/04 05:42:51;;;;;;;0.25;0.25;;;;;;;7.98;100.00;100138.56;5002766;28;20080;-59
2024/02/04 05:45:19;;;;;;;0.20;0.20;;;;;;;7.93;100.00;100141.81;5010028;28;20065;-59
2024/02/04 05:47:46;;;;;;;0.30;0.30;;;;;;;7.99;100.00;100149.03;5027166;28;20053;-59
2024/02/04 05:50:13;;;;;;;0.22;0.22;;;;;;;7.99;100.00;100146.38;5024525;28;20052;-59
2024/02/04 05:52:42;;;;;;;0.30;0.30;;;;;;;7.93;100.00;100141.81;5022595;28;20056;-58
2024/02/04 05:55:11;;;;;;;0.22;0.22;;;;;;;7.89;100.00;100145.94;5041319;28;20045;-58
2024/02/04 05:57:38;;;;;;;0.30;0.30;;;;;;;7.91;100.00;100137.72;5021503;28;20049;-58
2024/02/04 06:00:06;;;;;;;0.30;0.30;;;;;;;7.90;100.00;100134.22;5040951;28;20318;-59
2024/02/04 06:02:36;;;;;;;0.30;0.30;;;;;;;7.91;100.00;100130.56;5037477;28;20048;-59
2024/02/04 06:05:03;;;;;;;0.30;0.30;;;;;;;7.89;100.00;100135.28;5023121;28;20146;-59
2024/02/04 06:07:30;;;;;;;0.30;0.30;;;;;;;7.91;100.00;100121.69;5041443;28;20090;-59
2024/02/04 06:10:03;;;;;;;0.30;0.30;;;;;;;7.94;100.00;100132.81;5041168;28;20045;-59
2024/02/04 06:12:31;;;;;;;0.22;0.22;;;;;;;7.91;100.00;100138.56;5046786;28;20052;-60
2024/02/04 06:14:58;;;;;;;0.30;0.30;;;;;;;7.99;100.00;100142.88;5035616;28;20128;-59
2024/02/04 06:17:25;;;;;;;0.30;0.30;;;;;;;7.92;100.00;100140.19;5020166;28;20107;-59
2024/02/04 06:19:53;;;;;;;0.35;0.35;;;;;;;8.00;100.00;100142.66;5031933;28;20101;-59
2024/02/04 06:22:20;;;;;;;0.30;0.30;;;;;;;8.03;100.00;100140.63;5022102;28;20047;-59
2024/02/04 06:24:47;;;;;;;0.30;0.30;;;;;;;7.99;100.00;100141.03;5037305;28;20045;-59
2024/02/04 06:27:16;;;;;;;0.30;0.30;;;;;;;7.95;100.00;100134.44;5023440;28;20053;-59
2024/02/04 06:29:43;;;;;;;0.30;0.30;;;;;;;7.97;100.00;100137.75;5041489;28;20373;-58
2024/02/04 06:32:10;;;;;;;0.30;0.30;;;;;;;7.84;100.00;100144.88;5041402;28;20044;-59
2024/02/04 06:34:38;;;;;;;0.30;0.30;;;;;;;7.89;100.00;100140.59;5042018;28;20053;-59
2024/02/04 06:37:05;;;;;;;0.20;0.20;;;;;;;7.77;100.00;100136.88;5022423;28;20048;-58
2024/02/04 06:39:34;;;;;;;0.30;0.30;;;;;;;7.72;100.00;100128.66;5042414;28;20486;-59
2024/02/04 06:42:01;;;;;;;0.30;0.30;;;;;;;7.84;100.00;100108.38;5041020;28;20095;-59
2024/02/04 06:44:30;;;;;;;0.30;0.30;;;;;;;7.79;100.00;100116.16;5019052;28;20558;-59
2024/02/04 06:46:58;;;;;;;0.35;0.35;;;;;;;7.80;100.00;100120.47;5023421;28;20136;-59
2024/02/04 06:49:26;;;;;;;0.20;0.20;;;;;;;7.80;100.00;100114.31;5041463;28;20517;-59
2024/02/04 06:51:56;;;;;;;0.30;0.30;;;;;;;7.86;100.00;100122.34;5039618;28;20549;-59
2024/02/04 06:54:23;;;;;;;0.30;0.30;;;;;;;7.79;100.00;100110.81;5023578;28;20048;-59
2024/02/04 06:56:52;;;;;;;0.20;0.20;;;;;;;7.75;100.00;100120.25;5041717;28;22604;-59
2024/02/04 06:59:19;;;;;;;0.30;0.30;;;;;;;7.84;100.00;100121.72;5004061;28;20377;-59
2024/02/04 07:01:47;;;;;;;0.30;0.30;;;;;;;7.94;100.00;100127.47;5041352;28;20590;-58
2024/02/04 07:04:14;;;;;;;0.25;0.25;;;;;;;7.77;100.00;100123.53;5040297;28;20553;-58
2024/02/04 07:06:41;;;;;;;0.30;0.30;;;;;;;7.79;100.00;100129.50;5039251;28;20593;-58
2024/02/04 07:09:08;;;;;;;0.30;0.30;;;;;;;7.73;100.00;100123.09;5018059;28;20099;-58
2024/02/04 07:11:37;;;;;;;0.30;0.30;;;;;;;7.76;100.00;100124.53;5041101;28;20075;-59
2024/02/04 07:14:05;;;;;;;0.40;0.40;;;;;;;7.77;100.00;100132.34;5015766;28;20434;-59
2024/02/04 07:16:33;;;;;;;0.30;0.30;;;;;;;7.78;100.00;100133.19;5036795;28;20052;-59
2024/02/04 07:19:02;;;;;;;0.38;0.38;;;;;;;8.01;100.00;100127.47;5039560;28;20053;-59
2024/02/04 07:21:29;;;;;;;0.30;0.30;;;;;;;8.04;100.00;100126.22;5040885;28;20495;-59
2024/02/04 07:23:56;;;;;;;0.40;0.40;;;;;;;8.02;100.00;100122.97;5037724;28;20052;-59
2024/02/04 07:26:24;;;;;;;0.30;0.30;;;;;;;8.00;100.00;100123.16;5043181;28;20049;-59
2024/02/04 07:28:51;;;;;;;0.30;0.30;;;;;;;8.35;100.00;100115.78;5043339;28;20049;-59
2024/02/04 07:31:19;;;;;;;0.40;0.40;;;;;;;8.24;100.00;100121.75;5043106;28;20040;-59
2024/02/04 07:33:46;;;;;;;0.30;0.30;;;;;;;8.82;100.00;100127.25;5042618;28;20399;-59
2024/02/04 07:36:14;;;;;;;0.30;0.30;;;;;;;8.57;100.00;100126.28;5042954;28;20107;-59
2024/02/04 07:38:41;;;;;;;0.30;0.30;;;;;;;8.59;100.00;100129.56;5038055;28;20103;-59
2024/02/04 07:41:08;;;;;;;0.30;0.30;;;;;;;8.60;100.00;100125.88;5043834;28;20160;-59
2024/02/04 07:43:37;;;;;;;0.30;0.30;;;;;;;8.77;100.00;100115.56;5040815;28;20053;-59
2024/02/04 07:46:04;;;;;;;0.30;0.30;;;;;;;8.93;100.00;100115.09;5040720;28;20454;-59
2024/02/04 07:48:31;;;;;;;0.38;0.38;;;;;;;8.70;100.00;100109.41;4985275;28;20058;-59
2024/02/04 07:50:58;;;;;;;0.30;0.30;;;;;;;8.75;100.00;100105.06;5004552;28;20045;-59
2024/02/04 07:53:27;;;;;;;0.30;0.30;;;;;;;8.63;100.00;100104.06;5000521;28;20501;-59
2024/02/04 07:55:54;;;;;;;0.28;0.28;;;;;;;8.95;100.00;100096.19;4999599;28;20128;-59
2024/02/04 07:58:22;;;;;;;0.30;0.30;;;;;;;8.88;100.00;100098.88;5004151;28;20033;-59
2024/02/04 08:00:49;;;;;;;0.20;0.20;;;;;;;9.01;100.00;100108.69;4997928;28;20472;-58
2024/02/04 08:03:16;;;;;;;0.20;0.20;;;;;;;9.18;100.00;100109.88;5004429;28;20042;-58
2024/02/04 08:05:43;;;;;;;0.20;0.20;;;;;;;9.13;100.00;100100.84;5000192;28;20073;-58
2024/02/04 08:08:10;;;;;;;0.30;0.30;;;;;;;9.39;100.00;100114.13;5003014;28;20188;-58
2024/02/04 08:10:39;;;;;;;0.30;0.30;;;;;;;9.31;100.00;100110.84;4992459;28;20047;-59
2024/02/04 08:13:07;;;;;;;0.30;0.30;;;;;;;8.86;100.00;100106.25;4997017;28;20224;-58
2024/02/04 08:15:34;;;;;;;0.30;0.30;;;;;;;9.59;100.00;100108.66;4997807;28;20112;-58
2024/02/04 08:18:04;;;;;;;0.25;0.25;;;;;;;9.57;100.00;100121.44;4998954;28;20801;-58
2024/02/04 08:20:51;;;;;;;0.20;0.20;;;;;;;9.61;100.00;100132.53;5002402;28;20160;-58
2024/02/04 08:23:23;;;;;;;0.20;0.20;;;;;;;9.37;100.00;100128.75;4999102;28;20072;-58
2024/02/04 08:25:57;;;;;;;0.25;0.25;;;;;;;9.88;100.00;100143.91;5003295;28;20459;-58
2024/02/04 08:28:26;;;;;;;0.30;0.30;;;;;;;9.52;100.00;100140.00;4998958;28;20046;-58
2024/02/04 08:30:53;;;;;;;0.20;0.20;;;;;;;9.50;100.00;100126.00;4983997;28;20045;-58
2024/02/04 08:33:21;;;;;;;0.20;0.20;;;;;;;9.58;100.00;100133.78;5000590;28;20130;-58
2024/02/04 08:35:52;;;;;;;0.20;0.20;;;;;;;9.67;100.00;100126.34;4998716;28;20042;-58
2024/02/04 08:38:25;;;;;;;0.20;0.20;;;;;;;9.84;100.00;100123.97;4994880;28;20042;-58
2024/02/04 08:40:56;;;;;;;0.20;0.20;;;;;;;9.97;100.00;100112.34;5005559;28;20049;-58
2024/02/04 08:43:26;;;;;;;0.22;0.22;;;;;;;9.78;100.00;100095.38;4997611;28;20527;-58
2024/02/04 08:45:54;;;;;;;0.30;0.30;;;;;;;9.94;100.00;100100.22;4998881;28;20196;-58
2024/02/04 08:48:21;;;;;;;0.20;0.20;;;;;;;9.63;100.00;100107.19;5032329;28;20053;-58
2024/02/04 08:50:48;;;;;;;0.28;0.28;;;;;;;10.01;100.00;100116.22;5041524;28;20048;-58
2024/02/04 08:53:15;;;;;;;0.30;0.30;;;;;;;10.27;100.00;100121.38;5017373;28;20049;-58
2024/02/04 08:55:43;;;;;;;0.30;0.30;;;;;;;9.80;100.00;100114.72;5042438;28;20495;-59
2024/02/04 08:58:11;;;;;;;0.20;0.20;;;;;;;10.00;100.00;100110.03;5023481;28;20601;-59
2024/02/04 09:00:38;;;;;;;0.10;0.10;;;;;;;9.88;100.00;100111.78;5040737;28;20123;-59
2024/02/04 09:03:04;;;;;;;0.30;0.30;;;;;;;9.79;100.00;100094.34;5040807;28;20511;-59
2024/02/04 09:05:32;;;;;;;0.20;0.20;;;;;;;10.19;100.00;100091.38;5041249;28;20056;-60
2024/02/04 09:07:59;;;;;;;0.20;0.20;;;;;;;10.09;100.00;100097.22;5033223;28;20080;-59
2024/02/04 09:10:26;;;;;;;0.20;0.20;;;;;;;10.03;100.00;100095.41;5041161;28;20045;-59
2024/02/04 09:12:53;;;;;;;0.20;0.20;;;;;;;10.21;100.00;100100.00;5041159;28;20036;-59
2024/02/04 09:15:21;;;;;;;0.20;0.20;;;;;;;9.99;100.00;100105.75;5038651;28;20079;-59
2024/02/04 09:17:49;;;;;;;0.30;0.30;;;;;;;10.34;100.00;100100.75;5027482;28;20591;-59
2024/02/04 09:20:16;;;;;;;0.20;0.20;;;;;;;9.94;100.00;100105.56;5039083;28;20040;-59
2024/02/04 09:22:43;;;;;;;0.20;0.20;;;;;;;10.10;100.00;100088.94;5022397;28;20049;-59
2024/02/04 09:25:10;;;;;;;0.20;0.20;;;;;;;10.09;100.00;100087.31;5018612;28;20049;-59
2024/02/04 09:27:38;;;;;;;0.20;0.20;;;;;;;10.18;100.00;100092.41;5022893;28;20049;-59
2024/02/04 09:30:06;;;;;;;0.20;0.20;;;;;;;10.05;100.00;100085.28;5017764;28;20041;-59
2024/02/04 09:32:35;;;;;;;0.20;0.20;;;;;;;10.02;100.00;100093.78;5040670;28;20048;-60
2024/02/04 09:35:02;;;;;;;0.30;0.30;;;;;;;10.13;100.00;100088.53;5037370;28;20694;-60
2024/02/04 09:37:29;;;;;;;0.20;0.20;;;;;;;10.18;100.00;100097.75;5036420;28;20487;-59
2024/02/04 09:39:56;;;;;;;0.20;0.20;;;;;;;10.39;100.00;100101.97;5041806;28;20511;-60
2024/02/04 09:42:24;;;;;;;0.25;0.25;;;;;;;10.42;100.00;100105.00;5037726;28;20110;-59
2024/02/04 09:44:51;;;;;;;0.30;0.30;;;;;;;9.72;100.00;100111.25;5007784;28;20057;-59
2024/02/04 09:47:18;;;;;;;0.20;0.20;;;;;;;10.08;100.00;100123.19;5039813;28;20057;-59
2024/02/04 09:49:47;;;;;;;0.30;0.30;;;;;;;10.02;100.00;100107.16;5027083;28;20043;-60
2024/02/04 09:52:14;;;;;;;0.30;0.30;;;;;;;10.17;100.00;100115.69;5013534;28;20324;-60
2024/02/04 09:54:45;;;;;;;0.20;0.20;;;;;;;10.32;100.00;100110.03;5032965;28;20048;-59
2024/02/04 09:57:13;;;;;;;0.30;0.30;;;;;;;10.31;100.00;100121.81;5035936;28;20396;-59
2024/02/04 09:59:40;;;;;;;0.20;0.20;;;;;;;10.35;100.00;100123.00;5040096;28;20348;-59
2024/02/04 10:02:08;;;;;;;0.20;0.20;;;;;;;10.24;100.00;100129.88;5039676;28;20136;-59
2024/02/04 10:04:35;;;;;;;0.30;0.30;;;;;;;10.56;100.00;100141.38;5029688;28;20262;-60
2024/02/04 10:07:04;;;;;;;0.20;0.20;;;;;;;10.41;100.00;100137.38;5022751;28;20443;-60
2024/02/04 10:09:31;;;;;;;0.20;0.20;;;;;;;10.69;100.00;100134.25;5039347;28;20099;-59
2024/02/04 10:11:58;;;;;;;0.20;0.20;;;;;;;10.28;100.00;100138.31;5023493;28;20056;-59
2024/02/04 10:14:25;;;;;;;0.20;0.20;;;;;;;10.10;100.00;100131.81;5022519;28;20049;-59
2024/02/04 10:16:52;;;;;;;0.20;0.20;;;;;;;10.20;100.00;100143.91;5042159;28;20033;-59
2024/02/04 10:19:19;;;;;;;0.30;0.30;;;;;;;10.68;100.00;100143.31;5038699;28;20044;-59
2024/02/04 10:21:47;;;;;;;0.20;0.20;;;;;;;10.65;100.00;100135.72;5039596;28;20094;-60
2024/02/04 10:24:15;;;;;;;0.20;0.20;;;;;;;10.69;100.00;100135.06;5038232;28;20041;-59
2024/02/04 10:26:43;;;;;;;0.30;0.30;;;;;;;10.57;100.00;100123.44;5005041;28;20057;-59
2024/02/04 10:29:10;;;;;;;0.30;0.30;;;;;;;10.80;100.00;100126.28;5017751;28;20045;-59
2024/02/04 10:31:37;;;;;;;0.20;0.20;;;;;;;10.86;100.00;100119.25;5022005;28;20049;-59
2024/02/04 10:34:04;;;;;;;0.20;0.20;;;;;;;10.44;100.00;100110.97;5039751;28;20511;-59
2024/02/04 10:36:32;;;;;;;0.20;0.20;;;;;;;10.73;100.00;100116.66;5019511;28;20533;-59
2024/02/04 10:39:00;;;;;;;0.28;0.28;;;;;;;10.82;100.00;100118.03;5040902;28;20131;-60
2024/02/04 10:41:28;;;;;;;0.20;0.20;;;;;;;10.77;100.00;100104.47;5021990;28;20495;-58
2024/02/04 10:43:55;;;;;;;0.20;0.20;;;;;;;10.81;100.00;100100.31;5041619;28;20033;-59
2024/02/04 10:46:23;;;;;;;0.20;0.20;;;;;;;10.94;100.00;100089.44;5044596;28;20068;-59
2024/02/04 10:48:56;;;;;;;0.13;0.13;;;;;;;11.09;100.00;100085.56;5019812;28;20049;-58
2024/02/04 10:51:26;;;;;;;0.20;0.20;;;;;;;11.24;100.00;100085.97;5016765;28;20102;-59
2024/02/04 10:53:55;;;;;;;0.20;0.20;;;;;;;11.88;100.00;100080.97;5021387;28;20419;-59
2024/02/04 10:56:23;;;;;;;0.20;0.20;;;;;;;11.26;100.00;100075.84;5021654;28;20049;-59
2024/02/04 10:58:52;;;;;;;0.20;0.20;;;;;;;11.41;100.00;100078.94;5020518;28;20570;-59
2024/02/04 11:01:19;;;;;;;0.15;0.15;;;;;;;11.53;100.00;100080.84;5038890;28;20053;-59
2024/02/04 11:03:46;;;;;;;0.13;0.13;;;;;;;11.34;100.00;100090.81;5041241;28;20067;-59
2024/02/04 11:06:12;;;;;;;0.20;0.20;;;;;;;11.08;100.00;100091.94;5022514;28;20098;-59
2024/02/04 11:08:39;;;;;;;0.20;0.20;;;;;;;10.86;100.00;100084.38;5021655;28;20386;-59
2024/02/04 11:11:07;;;;;;;0.20;0.20;;;;;;;10.55;100.00;100080.75;5039687;28;20040;-59
2024/02/04 11:13:37;;;;;;;0.20;0.20;;;;;;;11.05;100.00;100079.81;5041094;28;20400;-59
2024/02/04 11:16:07;;;;;;;0.20;0.20;;;;;;;10.72;100.00;100085.56;5023217;28;20060;-58
2024/02/04 11:18:43;;;;;;;0.28;0.28;;;;;;;11.11;100.00;100083.47;5040313;28;20044;-59
2024/02/04 11:21:24;;;;;;;0.20;0.20;;;;;;;11.35;100.00;100073.66;5038998;28;20049;-59
2024/02/04 11:23:55;;;;;;;0.20;0.20;;;;;;;11.18;100.00;100074.28;5037491;28;20355;-59
2024/02/04 11:26:23;;;;;;;0.20;0.20;;;;;;;11.12;100.00;100071.69;5039714;28;20348;-59